sensor_id;sensor_type;location;lat;lon;timestamp;pressure;altitude;pressure_sealevel;temperature;humidity
75788;BME280;64406;50.024;14.492;2023-05-07T00:01:50;98222.06;;;9.32;76.09
75788;BME280;64406;50.024;14.492;2023-05-07T00:04:16;98233.34;;;9.34;76.62
75788;BME280;64406;50.024;14.492;2023-05-07T00:06:41;98220.47;;;9.26;76.35
75788;BME280;64406;50.024;14.492;2023-05-07T00:09:07;98224.50;;;9.18;76.81
75788;BME280;64406;50.024;14.492;2023-05-07T00:11:33;98227.44;;;9.22;76.48
75788;BME280;64406;50.024;14.492;2023-05-07T00:13:59;98233.91;;;9.26;77.04
75788;BME280;64406;50.024;14.492;2023-05-07T00:16:25;98230.66;;;9.34;76.56
75788;BME280;64406;50.024;14.492;2023-05-07T00:18:52;98228.50;;;9.41;76.51
75788;BME280;64406;50.024;14.492;2023-05-07T00:21:17;98234.13;;;9.55;75.32
75788;BME280;64406;50.024;14.492;2023-05-07T00:23:43;98241.66;;;9.58;75.83
75788;BME280;64406;50.024;14.492;2023-05-07T00:26:09;98233.84;;;9.62;75.08
75788;BME280;64406;50.024;14.492;2023-05-07T00:28:34;98235.44;;;9.63;75.62
75788;BME280;64406;50.024;14.492;2023-05-07T00:31:00;98237.63;;;9.61;75.65
75788;BME280;64406;50.024;14.492;2023-05-07T00:33:26;98237.88;;;9.64;75.26
75788;BME280;64406;50.024;14.492;2023-05-07T00:35:52;98233.28;;;9.75;74.91
75788;BME280;64406;50.024;14.492;2023-05-07T00:38:20;98235.16;;;9.74;74.44
75788;BME280;64406;50.024;14.492;2023-05-07T00:40:45;98230.88;;;9.73;74.86
75788;BME280;64406;50.024;14.492;2023-05-07T00:43:11;98234.63;;;9.72;74.58
75788;BME280;64406;50.024;14.492;2023-05-07T00:45:38;98232.22;;;9.66;74.77
75788;BME280;64406;50.024;14.492;2023-05-07T00:48:04;98240.31;;;9.66;74.61
75788;BME280;64406;50.024;14.492;2023-05-07T00:50:31;98239.47;;;9.70;74.50
75788;BME280;64406;50.024;14.492;2023-05-07T00:52:58;98241.63;;;9.68;74.96
75788;BME280;64406;50.024;14.492;2023-05-07T00:55:24;98238.13;;;9.78;73.96
75788;BME280;64406;50.024;14.492;2023-05-07T00:57:50;98250.50;;;9.79;74.17
75788;BME280;64406;50.024;14.492;2023-05-07T01:00:16;98247.81;;;9.79;73.93
75788;BME280;64406;50.024;14.492;2023-05-07T01:02:43;98245.41;;;9.72;73.83
75788;BME280;64406;50.024;14.492;2023-05-07T01:05:12;98243.75;;;9.76;73.80
75788;BME280;64406;50.024;14.492;2023-05-07T01:07:40;98253.69;;;9.91;73.12
75788;BME280;64406;50.024;14.492;2023-05-07T01:10:08;98239.97;;;9.82;73.66
75788;BME280;64406;50.024;14.492;2023-05-07T01:12:36;98241.06;;;9.81;73.75
75788;BME280;64406;50.024;14.492;2023-05-07T01:15:03;98240.81;;;9.78;73.53
75788;BME280;64406;50.024;14.492;2023-05-07T01:17:33;98250.22;;;9.80;73.60
75788;BME280;64406;50.024;14.492;2023-05-07T01:19:59;98233.25;;;9.85;73.27
75788;BME280;64406;50.024;14.492;2023-05-07T01:22:30;98247.75;;;9.89;72.80
75788;BME280;64406;50.024;14.492;2023-05-07T01:24:57;98250.44;;;9.89;72.95
75788;BME280;64406;50.024;14.492;2023-05-07T01:27:25;98256.41;;;9.86;72.93
75788;BME280;64406;50.024;14.492;2023-05-07T01:29:51;98244.56;;;9.82;72.46
75788;BME280;64406;50.024;14.492;2023-05-07T01:32:27;98258.00;;;9.82;73.23
75788;BME280;64406;50.024;14.492;2023-05-07T01:34:54;98254.50;;;9.81;72.97
75788;BME280;64406;50.024;14.492;2023-05-07T01:37:21;98252.63;;;9.82;72.73
75788;BME280;64406;50.024;14.492;2023-05-07T01:39:48;98263.91;;;9.89;73.10
75788;BME280;64406;50.024;14.492;2023-05-07T01:42:13;98253.97;;;9.85;73.16
75788;BME280;64406;50.024;14.492;2023-05-07T01:44:39;98238.94;;;9.73;72.99
75788;BME280;64406;50.024;14.492;2023-05-07T01:47:06;98255.88;;;9.84;73.12
75788;BME280;64406;50.024;14.492;2023-05-07T01:49:32;98259.38;;;9.79;72.69
75788;BME280;64406;50.024;14.492;2023-05-07T01:51:58;98261.25;;;9.79;73.31
75788;BME280;64406;50.024;14.492;2023-05-07T01:54:27;98247.53;;;9.86;72.39
75788;BME280;64406;50.024;14.492;2023-05-07T01:56:54;98248.84;;;9.93;72.03
75788;BME280;64406;50.024;14.492;2023-05-07T01:59:20;98255.59;;;9.86;72.60
75788;BME280;64406;50.024;14.492;2023-05-07T02:01:46;98252.34;;;9.94;72.54
75788;BME280;64406;50.024;14.492;2023-05-07T02:04:12;98259.59;;;9.98;72.58
75788;BME280;64406;50.024;14.492;2023-05-07T02:06:38;98254.22;;;9.98;72.44
75788;BME280;64406;50.024;14.492;2023-05-07T02:09:04;98254.75;;;9.90;72.29
75788;BME280;64406;50.024;14.492;2023-05-07T02:11:30;98254.75;;;9.95;72.32
75788;BME280;64406;50.024;14.492;2023-05-07T02:13:55;98247.22;;;9.97;72.33
75788;BME280;64406;50.024;14.492;2023-05-07T02:16:21;98252.59;;;9.97;72.39
75788;BME280;64406;50.024;14.492;2023-05-07T02:18:48;98259.03;;;9.96;72.53
75788;BME280;64406;50.024;14.492;2023-05-07T02:21:14;98255.81;;;9.94;72.85
75788;BME280;64406;50.024;14.492;2023-05-07T02:23:39;98260.13;;;9.95;72.70
75788;BME280;64406;50.024;14.492;2023-05-07T02:26:05;98254.22;;;9.93;72.98
75788;BME280;64406;50.024;14.492;2023-05-07T02:28:31;98260.13;;;9.90;72.81
75788;BME280;64406;50.024;14.492;2023-05-07T02:30:57;98262.00;;;9.90;72.78
75788;BME280;64406;50.024;14.492;2023-05-07T02:33:23;98252.06;;;9.90;72.33
75788;BME280;64406;50.024;14.492;2023-05-07T02:35:49;98253.16;;;9.89;72.25
75788;BME280;64406;50.024;14.492;2023-05-07T02:38:17;98256.16;;;9.77;72.00
75788;BME280;64406;50.024;14.492;2023-05-07T02:40:43;98260.44;;;9.78;71.43
75788;BME280;64406;50.024;14.492;2023-05-07T02:43:09;98256.13;;;9.88;70.18
75788;BME280;64406;50.024;14.492;2023-05-07T02:45:35;98260.41;;;9.84;70.43
75788;BME280;64406;50.024;14.492;2023-05-07T02:48:03;98250.50;;;9.74;70.21
75788;BME280;64406;50.024;14.492;2023-05-07T02:50:29;98261.50;;;9.82;70.23
75788;BME280;64406;50.024;14.492;2023-05-07T02:52:55;98251.28;;;9.85;69.24
75788;BME280;64406;50.024;14.492;2023-05-07T02:55:21;98262.28;;;9.88;69.51
75788;BME280;64406;50.024;14.492;2023-05-07T02:57:46;98258.84;;;9.72;68.87
75788;BME280;64406;50.024;14.492;2023-05-07T03:00:18;98263.16;;;9.68;69.44
75788;BME280;64406;50.024;14.492;2023-05-07T03:02:46;98260.72;;;9.57;70.03
75788;BME280;64406;50.024;14.492;2023-05-07T03:05:12;98257.25;;;9.56;70.01
75788;BME280;64406;50.024;14.492;2023-05-07T03:07:39;98260.72;;;9.67;70.02
75788;BME280;64406;50.024;14.492;2023-05-07T03:10:06;98259.94;;;9.61;70.24
75788;BME280;64406;50.024;14.492;2023-05-07T03:12:32;98261.81;;;9.56;69.92
75788;BME280;64406;50.024;14.492;2023-05-07T03:14:57;98257.25;;;9.56;70.47
75788;BME280;64406;50.024;14.492;2023-05-07T03:17:23;98269.88;;;9.56;69.73
75788;BME280;64406;50.024;14.492;2023-05-07T03:19:49;98268.56;;;9.58;70.01
75788;BME280;64406;50.024;14.492;2023-05-07T03:22:14;98265.88;;;9.53;70.49
75788;BME280;64406;50.024;14.492;2023-05-07T03:24:40;98262.38;;;9.58;70.08
75788;BME280;64406;50.024;14.492;2023-05-07T03:27:05;98253.47;;;9.67;69.48
75788;BME280;64406;50.024;14.492;2023-05-07T03:29:31;98260.44;;;9.73;68.83
75788;BME280;64406;50.024;14.492;2023-05-07T03:31:57;98273.09;;;9.68;69.12
75788;BME280;64406;50.024;14.492;2023-05-07T03:34:22;98269.31;;;9.74;69.30
75788;BME280;64406;50.024;14.492;2023-05-07T03:36:48;98263.66;;;9.80;69.03
75788;BME280;64406;50.024;14.492;2023-05-07T03:39:14;98257.47;;;9.80;69.87
75788;BME280;64406;50.024;14.492;2023-05-07T03:41:40;98267.16;;;9.76;70.78
75788;BME280;64406;50.024;14.492;2023-05-07T03:44:06;98269.84;;;9.76;71.35
75788;BME280;64406;50.024;14.492;2023-05-07T03:46:33;98268.25;;;9.70;72.27
75788;BME280;64406;50.024;14.492;2023-05-07T03:48:59;98271.78;;;9.65;72.53
75788;BME280;64406;50.024;14.492;2023-05-07T03:51:24;98266.13;;;9.62;72.35
75788;BME280;64406;50.024;14.492;2023-05-07T03:53:51;98267.19;;;9.50;73.32
75788;BME280;64406;50.024;14.492;2023-05-07T03:56:23;98275.25;;;9.66;73.54
75788;BME280;64406;50.024;14.492;2023-05-07T03:58:52;98268.28;;;9.60;73.44
75788;BME280;64406;50.024;14.492;2023-05-07T04:01:17;98266.13;;;9.51;73.71
75788;BME280;64406;50.024;14.492;2023-05-07T04:03:43;98272.03;;;9.69;73.79
75788;BME280;64406;50.024;14.492;2023-05-07T04:06:09;98268.00;;;9.66;74.06
75788;BME280;64406;50.024;14.492;2023-05-07T04:08:35;98269.06;;;9.70;73.85
75788;BME280;64406;50.024;14.492;2023-05-07T04:11:00;98264.50;;;9.66;74.23
75788;BME280;64406;50.024;14.492;2023-05-07T04:13:26;98265.84;;;9.68;74.74
75788;BME280;64406;50.024;14.492;2023-05-07T04:15:52;98263.66;;;9.75;73.75
75788;BME280;64406;50.024;14.492;2023-05-07T04:18:18;98275.22;;;9.76;74.23
75788;BME280;64406;50.024;14.492;2023-05-07T04:20:44;98273.91;;;9.73;73.41
75788;BME280;64406;50.024;14.492;2023-05-07T04:23:10;98284.38;;;9.70;71.86
75788;BME280;64406;50.024;14.492;2023-05-07T04:25:35;98281.44;;;9.66;71.67
75788;BME280;64406;50.024;14.492;2023-05-07T04:28:01;98287.09;;;9.65;70.71
75788;BME280;64406;50.024;14.492;2023-05-07T04:30:27;98296.22;;;9.64;71.30
75788;BME280;64406;50.024;14.492;2023-05-07T04:32:52;98292.22;;;9.61;71.44
75788;BME280;64406;50.024;14.492;2023-05-07T04:35:18;98283.84;;;9.68;72.00
75788;BME280;64406;50.024;14.492;2023-05-07T04:37:44;98291.94;;;9.78;70.86
75788;BME280;64406;50.024;14.492;2023-05-07T04:40:10;98302.69;;;9.78;71.21
75788;BME280;64406;50.024;14.492;2023-05-07T04:42:36;98303.75;;;9.77;71.39
75788;BME280;64406;50.024;14.492;2023-05-07T04:45:02;98301.84;;;9.82;69.40
75788;BME280;64406;50.024;14.492;2023-05-07T04:47:28;98298.34;;;9.82;68.81
75788;BME280;64406;50.024;14.492;2023-05-07T04:49:53;98306.97;;;9.84;69.27
75788;BME280;64406;50.024;14.492;2023-05-07T04:52:19;98308.84;;;9.89;69.33
75788;BME280;64406;50.024;14.492;2023-05-07T04:54:45;98304.28;;;9.84;68.98
75788;BME280;64406;50.024;14.492;2023-05-07T04:57:11;98299.69;;;9.95;68.93
75788;BME280;64406;50.024;14.492;2023-05-07T04:59:36;98291.34;;;9.96;68.70
75788;BME280;64406;50.024;14.492;2023-05-07T05:02:02;98307.47;;;10.01;67.93
75788;BME280;64406;50.024;14.492;2023-05-07T05:04:29;98310.44;;;10.05;68.05
75788;BME280;64406;50.024;14.492;2023-05-07T05:06:55;98317.94;;;10.08;67.79
75788;BME280;64406;50.024;14.492;2023-05-07T05:09:21;98321.16;;;10.15;68.28
75788;BME280;64406;50.024;14.492;2023-05-07T05:11:47;98315.78;;;10.25;66.51
75788;BME280;64406;50.024;14.492;2023-05-07T05:14:12;98315.78;;;10.25;66.70
75788;BME280;64406;50.024;14.492;2023-05-07T05:16:38;98324.13;;;10.29;66.86
75788;BME280;64406;50.024;14.492;2023-05-07T05:19:04;98323.03;;;10.30;66.29
75788;BME280;64406;50.024;14.492;2023-05-07T05:21:30;98333.78;;;10.35;66.67
75788;BME280;64406;50.024;14.492;2023-05-07T05:23:56;98327.63;;;10.29;66.27
75788;BME280;64406;50.024;14.492;2023-05-07T05:26:21;98335.41;;;10.36;66.77
75788;BME280;64406;50.024;14.492;2023-05-07T05:28:47;98340.78;;;10.41;66.35
75788;BME280;64406;50.024;14.492;2023-05-07T05:31:13;98335.41;;;10.36;67.60
75788;BME280;64406;50.024;14.492;2023-05-07T05:33:39;98328.66;;;10.44;66.36
75788;BME280;64406;50.024;14.492;2023-05-07T05:36:05;98344.81;;;10.44;66.21
75788;BME280;64406;50.024;14.492;2023-05-07T05:38:31;98335.16;;;10.38;66.44
75788;BME280;64406;50.024;14.492;2023-05-07T05:40:57;98334.88;;;10.34;66.26
75788;BME280;64406;50.024;14.492;2023-05-07T05:43:22;98336.25;;;10.31;66.61
75788;BME280;64406;50.024;14.492;2023-05-07T05:45:48;98345.63;;;10.44;66.27
75788;BME280;64406;50.024;14.492;2023-05-07T05:48:14;98336.47;;;10.45;66.38
75788;BME280;64406;50.024;14.492;2023-05-07T05:50:41;98343.97;;;10.48;65.89
75788;BME280;64406;50.024;14.492;2023-05-07T05:53:07;98338.31;;;10.55;65.97
75788;BME280;64406;50.024;14.492;2023-05-07T05:55:33;98331.28;;;10.64;65.69
75788;BME280;64406;50.024;14.492;2023-05-07T05:58:00;98338.25;;;10.70;65.76
75788;BME280;64406;50.024;14.492;2023-05-07T06:00:26;98321.81;;;10.67;65.67
75788;BME280;64406;50.024;14.492;2023-05-07T06:02:52;98340.06;;;10.85;64.84
75788;BME280;64406;50.024;14.492;2023-05-07T06:05:18;98334.59;;;10.95;64.93
75788;BME280;64406;50.024;14.492;2023-05-07T06:07:43;98340.25;;;10.99;64.35
75788;BME280;64406;50.024;14.492;2023-05-07T06:10:09;98340.66;;;10.72;64.34
75788;BME280;64406;50.024;14.492;2023-05-07T06:12:35;98350.47;;;10.42;65.04
75788;BME280;64406;50.024;14.492;2023-05-07T06:15:00;98351.53;;;10.46;64.87
75788;BME280;64406;50.024;14.492;2023-05-07T06:17:27;98349.88;;;10.55;65.43
75788;BME280;64406;50.024;14.492;2023-05-07T06:19:54;98361.03;;;10.93;64.23
75788;BME280;64406;50.024;14.492;2023-05-07T06:22:20;98350.16;;;11.08;62.51
75788;BME280;64406;50.024;14.492;2023-05-07T06:24:45;98366.56;;;11.17;62.94
75788;BME280;64406;50.024;14.492;2023-05-07T06:27:11;98358.78;;;11.10;63.52
75788;BME280;64406;50.024;14.492;2023-05-07T06:29:37;98358.72;;;10.76;63.44
75788;BME280;64406;50.024;14.492;2023-05-07T06:32:09;98369.28;;;11.12;62.70
75788;BME280;64406;50.024;14.492;2023-05-07T06:34:36;98381.75;;;11.03;63.12
75788;BME280;64406;50.024;14.492;2023-05-07T06:37:02;98373.81;;;11.22;62.43
75788;BME280;64406;50.024;14.492;2023-05-07T06:39:27;98389.09;;;10.87;62.94
75788;BME280;64406;50.024;14.492;2023-05-07T06:41:53;98379.88;;;11.03;63.55
75788;BME280;64406;50.024;14.492;2023-05-07T06:44:19;98384.91;;;11.15;62.74
75788;BME280;64406;50.024;14.492;2023-05-07T06:46:45;98387.25;;;11.32;62.61
75788;BME280;64406;50.024;14.492;2023-05-07T06:49:13;98374.63;;;11.22;62.89
75788;BME280;64406;50.024;14.492;2023-05-07T06:51:38;98391.75;;;10.97;63.01
75788;BME280;64406;50.024;14.492;2023-05-07T06:54:04;98381.00;;;10.92;63.53
75788;BME280;64406;50.024;14.492;2023-05-07T06:56:30;98382.50;;;11.08;62.85
75788;BME280;64406;50.024;14.492;2023-05-07T06:58:56;98387.59;;;11.15;62.72
75788;BME280;64406;50.024;14.492;2023-05-07T07:01:22;98390.09;;;11.06;62.36
75788;BME280;64406;50.024;14.492;2023-05-07T07:03:47;98395.66;;;11.20;62.37
75788;BME280;64406;50.024;14.492;2023-05-07T07:06:14;98399.94;;;11.26;62.43
75788;BME280;64406;50.024;14.492;2023-05-07T07:08:39;98395.34;;;11.32;61.62
75788;BME280;64406;50.024;14.492;2023-05-07T07:11:08;98402.81;;;11.40;62.19
75788;BME280;64406;50.024;14.492;2023-05-07T07:13:34;98397.94;;;11.42;60.81
75788;BME280;64406;50.024;14.492;2023-05-07T07:16:00;98403.28;;;11.52;60.40
75788;BME280;64406;50.024;14.492;2023-05-07T07:18:26;98397.31;;;11.55;59.86
75788;BME280;64406;50.024;14.492;2023-05-07T07:20:52;98407.09;;;11.51;60.62
75788;BME280;64406;50.024;14.492;2023-05-07T07:23:18;98404.19;;;11.37;61.24
75788;BME280;64406;50.024;14.492;2023-05-07T07:25:44;98403.81;;;11.54;60.53
75788;BME280;64406;50.024;14.492;2023-05-07T07:28:09;98395.16;;;11.57;60.41
75788;BME280;64406;50.024;14.492;2023-05-07T07:30:36;98412.38;;;11.66;61.23
75788;BME280;64406;50.024;14.492;2023-05-07T07:33:02;98408.34;;;11.64;61.45
75788;BME280;64406;50.024;14.492;2023-05-07T07:35:29;98406.94;;;11.71;61.48
75788;BME280;64406;50.024;14.492;2023-05-07T07:37:55;98407.94;;;11.86;60.53
75788;BME280;64406;50.024;14.492;2023-05-07T07:40:21;98416.94;;;12.05;61.04
75788;BME280;64406;50.024;14.492;2023-05-07T07:42:47;98415.97;;;11.52;59.87
75788;BME280;64406;50.024;14.492;2023-05-07T07:45:12;98416.59;;;11.78;59.99
75788;BME280;64406;50.024;14.492;2023-05-07T07:47:39;98415.22;;;11.80;59.60
75788;BME280;64406;50.024;14.492;2023-05-07T07:50:05;98424.66;;;11.88;58.98
75788;BME280;64406;50.024;14.492;2023-05-07T07:52:32;98415.22;;;11.80;59.06
75788;BME280;64406;50.024;14.492;2023-05-07T07:54:57;98423.34;;;11.75;59.99
75788;BME280;64406;50.024;14.492;2023-05-07T07:57:23;98425.69;;;11.53;60.46
75788;BME280;64406;50.024;14.492;2023-05-07T07:59:49;98423.91;;;11.77;60.00
75788;BME280;64406;50.024;14.492;2023-05-07T08:02:17;98436.78;;;11.90;58.99
75788;BME280;64406;50.024;14.492;2023-05-07T08:04:42;98432.19;;;11.91;58.70
75788;BME280;64406;50.024;14.492;2023-05-07T08:07:11;98443.63;;;12.12;59.02
75788;BME280;64406;50.024;14.492;2023-05-07T08:09:37;98434.78;;;12.01;58.28
75788;BME280;64406;50.024;14.492;2023-05-07T08:12:04;98437.94;;;12.13;58.34
75788;BME280;64406;50.024;14.492;2023-05-07T08:14:30;98442.22;;;12.19;58.21
75788;BME280;64406;50.024;14.492;2023-05-07T08:16:56;98444.06;;;12.24;58.03
75788;BME280;64406;50.024;14.492;2023-05-07T08:19:22;98440.53;;;12.29;57.57
75788;BME280;64406;50.024;14.492;2023-05-07T08:21:48;98434.53;;;12.32;58.18
75788;BME280;64406;50.024;14.492;2023-05-07T08:24:17;98443.63;;;12.41;57.65
75788;BME280;64406;50.024;14.492;2023-05-07T08:26:43;98442.81;;;12.11;57.73
75788;BME280;64406;50.024;14.492;2023-05-07T08:29:09;98450.44;;;12.33;58.56
75788;BME280;64406;50.024;14.492;2023-05-07T08:31:35;98453.88;;;12.44;57.27
75788;BME280;64406;50.024;14.492;2023-05-07T08:34:00;98440.19;;;12.35;58.13
75788;BME280;64406;50.024;14.492;2023-05-07T08:36:26;98449.53;;;12.48;58.20
75788;BME280;64406;50.024;14.492;2023-05-07T08:38:53;98457.31;;;12.55;58.23
75788;BME280;64406;50.024;14.492;2023-05-07T08:41:20;98467.34;;;12.49;58.42
75788;BME280;64406;50.024;14.492;2023-05-07T08:43:50;98451.84;;;12.31;58.25
75788;BME280;64406;50.024;14.492;2023-05-07T08:46:20;98465.34;;;12.31;58.56
75788;BME280;64406;50.024;14.492;2023-05-07T08:48:50;98466.56;;;12.72;56.86
75788;BME280;64406;50.024;14.492;2023-05-07T08:51:18;98451.69;;;13.23;55.26
75788;BME280;64406;50.024;14.492;2023-05-07T08:53:44;98450.56;;;13.00;55.96
75788;BME280;64406;50.024;14.492;2023-05-07T08:56:11;98459.44;;;13.29;55.36
75788;BME280;64406;50.024;14.492;2023-05-07T08:58:37;98457.84;;;13.28;55.85
75788;BME280;64406;50.024;14.492;2023-05-07T09:01:08;98456.59;;;13.21;54.80
75788;BME280;64406;50.024;14.492;2023-05-07T09:03:34;98448.97;;;13.98;53.06
75788;BME280;64406;50.024;14.492;2023-05-07T09:06:00;98460.88;;;14.16;52.61
75788;BME280;64406;50.024;14.492;2023-05-07T09:08:27;98462.22;;;14.32;52.60
75788;BME280;64406;50.024;14.492;2023-05-07T09:10:54;98458.44;;;14.33;51.35
75788;BME280;64406;50.024;14.492;2023-05-07T09:13:20;98457.94;;;14.45;52.39
75788;BME280;64406;50.024;14.492;2023-05-07T09:15:46;98473.56;;;14.53;51.54
75788;BME280;64406;50.024;14.492;2023-05-07T09:18:14;98471.25;;;14.60;51.64
75788;BME280;64406;50.024;14.492;2023-05-07T09:20:40;98462.22;;;14.65;52.51
75788;BME280;64406;50.024;14.492;2023-05-07T09:23:07;98466.16;;;14.73;52.32
75788;BME280;64406;50.024;14.492;2023-05-07T09:25:34;98464.09;;;14.51;51.92
75788;BME280;64406;50.024;14.492;2023-05-07T09:28:02;98468.72;;;14.50;52.67
75788;BME280;64406;50.024;14.492;2023-05-07T09:30:31;98459.59;;;14.46;53.23
75788;BME280;64406;50.024;14.492;2023-05-07T09:33:02;98472.06;;;14.28;53.14
75788;BME280;64406;50.024;14.492;2023-05-07T09:35:29;98475.16;;;14.22;53.38
75788;BME280;64406;50.024;14.492;2023-05-07T09:37:55;98467.47;;;14.10;54.49
75788;BME280;64406;50.024;14.492;2023-05-07T09:40:23;98464.09;;;13.99;53.97
75788;BME280;64406;50.024;14.492;2023-05-07T09:42:49;98472.41;;;13.89;54.57
75788;BME280;64406;50.024;14.492;2023-05-07T09:45:28;98473.81;;;13.68;55.01
75788;BME280;64406;50.024;14.492;2023-05-07T09:47:56;98462.00;;;13.77;54.32
75788;BME280;64406;50.024;14.492;2023-05-07T09:50:28;98484.41;;;13.64;54.66
75788;BME280;64406;50.024;14.492;2023-05-07T09:52:55;98479.28;;;13.63;55.22
75788;BME280;64406;50.024;14.492;2023-05-07T09:55:22;98474.97;;;13.43;55.63
75788;BME280;64406;50.024;14.492;2023-05-07T09:57:52;98475.03;;;13.38;57.23
75788;BME280;64406;50.024;14.492;2023-05-07T10:00:19;98472.81;;;13.40;56.42
75788;BME280;64406;50.024;14.492;2023-05-07T10:02:48;98472.41;;;13.51;56.21
75788;BME280;64406;50.024;14.492;2023-05-07T10:05:16;98476.59;;;13.63;55.81
75788;BME280;64406;50.024;14.492;2023-05-07T10:07:42;98469.56;;;13.62;55.73
75788;BME280;64406;50.024;14.492;2023-05-07T10:10:09;98479.94;;;13.73;54.66
75788;BME280;64406;50.024;14.492;2023-05-07T10:12:37;98484.28;;;13.93;55.45
75788;BME280;64406;50.024;14.492;2023-05-07T10:15:11;98476.72;;;13.90;55.47
75788;BME280;64406;50.024;14.492;2023-05-07T10:17:38;98478.31;;;14.10;54.93
75788;BME280;64406;50.024;14.492;2023-05-07T10:20:06;98481.41;;;14.55;53.41
75788;BME280;64406;50.024;14.492;2023-05-07T10:22:37;98479.44;;;14.88;52.00
75788;BME280;64406;50.024;14.492;2023-05-07T10:25:06;98481.72;;;14.67;51.42
75788;BME280;64406;50.024;14.492;2023-05-07T10:27:35;98476.72;;;15.02;51.88
75788;BME280;64406;50.024;14.492;2023-05-07T10:32:49;98457.09;;;16.18;47.68
75788;BME280;64406;50.024;14.492;2023-05-07T10:35:29;98460.22;;;16.34;47.88
75788;BME280;64406;50.024;14.492;2023-05-07T10:37:57;98453.44;;;16.54;46.39
75788;BME280;64406;50.024;14.492;2023-05-07T10:40:23;98454.09;;;16.51;47.11
75788;BME280;64406;50.024;14.492;2023-05-07T10:42:58;98457.81;;;16.10;48.57
75788;BME280;64406;50.024;14.492;2023-05-07T10:45:28;98452.41;;;16.41;47.75
75788;BME280;64406;50.024;14.492;2023-05-07T10:50:37;98454.38;;;17.11;46.74
75788;BME280;64406;50.024;14.492;2023-05-07T10:55:51;98448.06;;;17.68;45.46
75788;BME280;64406;50.024;14.492;2023-05-07T10:58:29;98448.28;;;17.23;45.74
75788;BME280;64406;50.024;14.492;2023-05-07T11:01:00;98451.47;;;17.08;46.71
75788;BME280;64406;50.024;14.492;2023-05-07T11:03:26;98446.53;;;16.48;48.10
75788;BME280;64406;50.024;14.492;2023-05-07T11:06:14;98460.41;;;16.69;47.54
75788;BME280;64406;50.024;14.492;2023-05-07T11:08:52;98458.16;;;16.40;48.05
75788;BME280;64406;50.024;14.492;2023-05-07T11:11:19;98470.88;;;16.53;47.87
75788;BME280;64406;50.024;14.492;2023-05-07T11:13:48;98450.72;;;16.54;47.80
75788;BME280;64406;50.024;14.492;2023-05-07T11:16:22;98458.50;;;16.38;47.36
75788;BME280;64406;50.024;14.492;2023-05-07T11:18:50;98459.25;;;16.61;47.84
75788;BME280;64406;50.024;14.492;2023-05-07T11:21:41;98459.59;;;16.91;46.73
75788;BME280;64406;50.024;14.492;2023-05-07T11:24:08;98460.44;;;17.08;45.50
75788;BME280;64406;50.024;14.492;2023-05-07T11:26:48;98459.66;;;17.17;45.35
75788;BME280;64406;50.024;14.492;2023-05-07T11:29:20;98463.69;;;17.19;46.29
75788;BME280;64406;50.024;14.492;2023-05-07T11:31:52;98465.03;;;16.91;47.97
75788;BME280;64406;50.024;14.492;2023-05-07T11:34:26;98470.53;;;16.77;48.18
75788;BME280;64406;50.024;14.492;2023-05-07T11:36:52;98463.97;;;16.47;50.17
75788;BME280;64406;50.024;14.492;2023-05-07T11:39:31;98467.63;;;16.20;50.28
75788;BME280;64406;50.024;14.492;2023-05-07T11:42:02;98462.25;;;16.06;50.53
75788;BME280;64406;50.024;14.492;2023-05-07T11:44:46;98473.56;;;15.63;51.69
75788;BME280;64406;50.024;14.492;2023-05-07T11:47:20;98474.00;;;15.93;50.79
75788;BME280;64406;50.024;14.492;2023-05-07T11:49:50;98464.66;;;16.08;51.67
75788;BME280;64406;50.024;14.492;2023-05-07T11:52:17;98465.09;;;16.23;48.99
75788;BME280;64406;50.024;14.492;2023-05-07T11:54:50;98471.44;;;15.96;49.79
75788;BME280;64406;50.024;14.492;2023-05-07T11:57:16;98466.59;;;15.57;50.79
75788;BME280;64406;50.024;14.492;2023-05-07T11:59:42;98463.19;;;15.79;50.70
75788;BME280;64406;50.024;14.492;2023-05-07T12:02:10;98472.56;;;15.59;50.59
75788;BME280;64406;50.024;14.492;2023-05-07T12:04:38;98466.97;;;15.92;50.32
75788;BME280;64406;50.024;14.492;2023-05-07T12:07:03;98469.91;;;16.26;50.04
75788;BME280;64406;50.024;14.492;2023-05-07T12:09:32;98455.84;;;16.78;47.37
75788;BME280;64406;50.024;14.492;2023-05-07T12:12:05;98462.75;;;17.32;47.12
75788;BME280;64406;50.024;14.492;2023-05-07T12:14:31;98467.44;;;17.01;47.86
75788;BME280;64406;50.024;14.492;2023-05-07T12:17:01;98473.41;;;16.72;48.34
75788;BME280;64406;50.024;14.492;2023-05-07T12:19:29;98465.25;;;16.49;49.33
75788;BME280;64406;50.024;14.492;2023-05-07T12:21:56;98477.78;;;16.06;49.65
75788;BME280;64406;50.024;14.492;2023-05-07T12:24:22;98475.31;;;15.82;50.32
75788;BME280;64406;50.024;14.492;2023-05-07T12:26:48;98486.03;;;16.00;49.54
75788;BME280;64406;50.024;14.492;2023-05-07T12:29:14;98486.03;;;15.64;50.10
75788;BME280;64406;50.024;14.492;2023-05-07T12:31:43;98482.56;;;15.86;49.56
75788;BME280;64406;50.024;14.492;2023-05-07T12:34:12;98485.31;;;16.31;48.71
75788;BME280;64406;50.024;14.492;2023-05-07T12:36:38;98495.53;;;16.56;47.71
75788;BME280;64406;50.024;14.492;2023-05-07T12:39:08;98488.22;;;16.97;47.01
75788;BME280;64406;50.024;14.492;2023-05-07T12:41:57;98480.53;;;16.90;47.13
75788;BME280;64406;50.024;14.492;2023-05-07T12:44:25;98482.50;;;17.55;45.28
75788;BME280;64406;50.024;14.492;2023-05-07T12:46:51;98473.56;;;17.15;44.55
75788;BME280;64406;50.024;14.492;2023-05-07T12:49:17;98476.78;;;18.99;41.68
75788;BME280;64406;50.024;14.492;2023-05-07T12:51:47;98476.59;;;17.71;43.66
75788;BME280;64406;50.024;14.492;2023-05-07T12:54:31;98482.06;;;17.88;43.78
75788;BME280;64406;50.024;14.492;2023-05-07T12:57:01;98471.00;;;18.19;43.36
75788;BME280;64406;50.024;14.492;2023-05-07T13:01:58;98479.63;;;17.52;44.59
75788;BME280;64406;50.024;14.492;2023-05-07T13:04:24;98485.13;;;16.81;45.98
75788;BME280;64406;50.024;14.492;2023-05-07T13:06:50;98479.94;;;17.50;45.26